sensor_id;sensor_type;location;lat;lon;timestamp;P1;durP1;ratioP1;P2;durP2;ratioP2
20375;SDS011;10347;51.828;6.466;2023-02-02T00:00:52;10.57;;;3.10;;
20375;SDS011;10347;51.828;6.466;2023-02-02T00:03:18;9.70;;;2.33;;
20375;SDS011;10347;51.828;6.466;2023-02-02T00:05:44;11.02;;;2.83;;
20375;SDS011;10347;51.828;6.466;2023-02-02T00:08:14;9.15;;;3.08;;
20375;SDS011;10347;51.828;6.466;2023-02-02T00:10:41;13.55;;;2.42;;
20375;SDS011;10347;51.828;6.466;2023-02-02T00:13:07;9.00;;;2.47;;
20375;SDS011;10347;51.828;6.466;2023-02-02T00:15:33;8.38;;;2.72;;
20375;SDS011;10347;51.828;6.466;2023-02-02T00:17:59;4.05;;;2.00;;
20375;SDS011;10347;51.828;6.466;2023-02-02T00:20:24;8.02;;;2.47;;
20375;SDS011;10347;51.828;6.466;2023-02-02T00:22:50;4.85;;;2.20;;
20375;SDS011;10347;51.828;6.466;2023-02-02T00:25:15;6.10;;;2.30;;
20375;SDS011;10347;51.828;6.466;2023-02-02T00:27:41;5.47;;;2.33;;
20375;SDS011;10347;51.828;6.466;2023-02-02T00:30:07;5.18;;;2.00;;
20375;SDS011;10347;51.828;6.466;2023-02-02T00:32:33;11.18;;;2.35;;
20375;SDS011;10347;51.828;6.466;2023-02-02T00:34:59;11.43;;;3.13;;
20375;SDS011;10347;51.828;6.466;2023-02-02T00:37:24;5.70;;;2.47;;
20375;SDS011;10347;51.828;6.466;2023-02-02T00:39:50;7.13;;;2.72;;
20375;SDS011;10347;51.828;6.466;2023-02-02T00:42:15;7.43;;;2.83;;
20375;SDS011;10347;51.828;6.466;2023-02-02T00:44:41;7.43;;;2.78;;
20375;SDS011;10347;51.828;6.466;2023-02-02T00:47:25;6.60;;;2.47;;
20375;SDS011;10347;51.828;6.466;2023-02-02T00:49:51;6.18;;;2.72;;
20375;SDS011;10347;51.828;6.466;2023-02-02T00:52:16;12.25;;;3.05;;
20375;SDS011;10347;51.828;6.466;2023-02-02T00:54:42;13.07;;;3.13;;
20375;SDS011;10347;51.828;6.466;2023-02-02T00:57:08;6.82;;;2.75;;
20375;SDS011;10347;51.828;6.466;2023-02-02T00:59:37;13.68;;;3.45;;
20375;SDS011;10347;51.828;6.466;2023-02-02T01:02:03;10.45;;;2.92;;
20375;SDS011;10347;51.828;6.466;2023-02-02T01:04:28;12.82;;;3.10;;
20375;SDS011;10347;51.828;6.466;2023-02-02T01:06:54;13.52;;;3.65;;
20375;SDS011;10347;51.828;6.466;2023-02-02T01:09:20;11.65;;;2.95;;
20375;SDS011;10347;51.828;6.466;2023-02-02T01:11:45;5.90;;;2.90;;
20375;SDS011;10347;51.828;6.466;2023-02-02T01:14:11;9.30;;;2.97;;
20375;SDS011;10347;51.828;6.466;2023-02-02T01:16:36;8.68;;;3.45;;
20375;SDS011;10347;51.828;6.466;2023-02-02T01:19:02;11.27;;;3.65;;
20375;SDS011;10347;51.828;6.466;2023-02-02T01:21:28;12.88;;;3.67;;
20375;SDS011;10347;51.828;6.466;2023-02-02T01:23:53;16.33;;;4.55;;
20375;SDS011;10347;51.828;6.466;2023-02-02T01:26:19;14.35;;;3.90;;
20375;SDS011;10347;51.828;6.466;2023-02-02T01:28:44;9.57;;;3.13;;
20375;SDS011;10347;51.828;6.466;2023-02-02T01:31:15;12.13;;;3.75;;
20375;SDS011;10347;51.828;6.466;2023-02-02T01:33:42;9.52;;;3.35;;
20375;SDS011;10347;51.828;6.466;2023-02-02T01:36:11;12.07;;;3.22;;
20375;SDS011;10347;51.828;6.466;2023-02-02T01:38:38;16.65;;;3.90;;
20375;SDS011;10347;51.828;6.466;2023-02-02T01:41:04;9.30;;;3.58;;
20375;SDS011;10347;51.828;6.466;2023-02-02T01:46:06;13.13;;;3.63;;
20375;SDS011;10347;51.828;6.466;2023-02-02T01:48:37;15.70;;;3.60;;
20375;SDS011;10347;51.828;6.466;2023-02-02T01:51:08;10.60;;;3.10;;
20375;SDS011;10347;51.828;6.466;2023-02-02T01:53:38;11.75;;;3.15;;
20375;SDS011;10347;51.828;6.466;2023-02-02T01:56:05;16.45;;;3.75;;
20375;SDS011;10347;51.828;6.466;2023-02-02T01:58:33;9.95;;;2.80;;
20375;SDS011;10347;51.828;6.466;2023-02-02T02:01:02;11.15;;;3.33;;
20375;SDS011;10347;51.828;6.466;2023-02-02T02:03:28;12.45;;;3.15;;
20375;SDS011;10347;51.828;6.466;2023-02-02T02:06:09;11.85;;;3.25;;
20375;SDS011;10347;51.828;6.466;2023-02-02T02:11:12;12.73;;;3.45;;
20375;SDS011;10347;51.828;6.466;2023-02-02T02:13:38;15.95;;;3.45;;
20375;SDS011;10347;51.828;6.466;2023-02-02T02:19:31;15.20;;;3.45;;
20375;SDS011;10347;51.828;6.466;2023-02-02T02:22:38;12.10;;;3.50;;
20375;SDS011;10347;51.828;6.466;2023-02-02T02:25:55;19.65;;;3.80;;
20375;SDS011;10347;51.828;6.466;2023-02-02T02:29:08;17.52;;;3.22;;
20375;SDS011;10347;51.828;6.466;2023-02-02T02:31:57;10.77;;;3.28;;
20375;SDS011;10347;51.828;6.466;2023-02-02T02:34:48;13.68;;;3.00;;
20375;SDS011;10347;51.828;6.466;2023-02-02T02:37:17;12.35;;;3.35;;
20375;SDS011;10347;51.828;6.466;2023-02-02T02:40:05;13.55;;;3.90;;
20375;SDS011;10347;51.828;6.466;2023-02-02T02:42:52;11.95;;;3.47;;
20375;SDS011;10347;51.828;6.466;2023-02-02T02:45:21;12.23;;;3.25;;
20375;SDS011;10347;51.828;6.466;2023-02-02T02:47:49;11.65;;;3.35;;
20375;SDS011;10347;51.828;6.466;2023-02-02T02:50:15;8.27;;;3.47;;
20375;SDS011;10347;51.828;6.466;2023-02-02T02:52:41;10.85;;;3.40;;
20375;SDS011;10347;51.828;6.466;2023-02-02T02:55:07;14.52;;;3.35;;
20375;SDS011;10347;51.828;6.466;2023-02-02T03:03:07;11.20;;;3.10;;
20375;SDS011;10347;51.828;6.466;2023-02-02T03:06:04;4.97;;;2.35;;
20375;SDS011;10347;51.828;6.466;2023-02-02T03:08:33;9.15;;;2.60;;
20375;SDS011;10347;51.828;6.466;2023-02-02T03:11:00;8.27;;;2.58;;
20375;SDS011;10347;51.828;6.466;2023-02-02T03:13:30;11.88;;;2.95;;
20375;SDS011;10347;51.828;6.466;2023-02-02T03:15:56;5.82;;;2.15;;
20375;SDS011;10347;51.828;6.466;2023-02-02T03:18:23;5.50;;;2.60;;
20375;SDS011;10347;51.828;6.466;2023-02-02T03:20:51;8.40;;;2.33;;
20375;SDS011;10347;51.828;6.466;2023-02-02T03:23:17;8.52;;;3.00;;
20375;SDS011;10347;51.828;6.466;2023-02-02T03:25:42;8.10;;;2.63;;
20375;SDS011;10347;51.828;6.466;2023-02-02T03:28:08;4.57;;;2.00;;
20375;SDS011;10347;51.828;6.466;2023-02-02T03:30:34;6.10;;;2.50;;
20375;SDS011;10347;51.828;6.466;2023-02-02T03:33:00;7.40;;;2.13;;
20375;SDS011;10347;51.828;6.466;2023-02-02T03:35:26;6.43;;;2.40;;
20375;SDS011;10347;51.828;6.466;2023-02-02T03:37:52;4.18;;;2.15;;
20375;SDS011;10347;51.828;6.466;2023-02-02T03:40:17;10.00;;;2.25;;
20375;SDS011;10347;51.828;6.466;2023-02-02T03:42:43;5.22;;;2.53;;
20375;SDS011;10347;51.828;6.466;2023-02-02T03:45:09;8.65;;;2.33;;
20375;SDS011;10347;51.828;6.466;2023-02-02T03:47:34;6.75;;;2.38;;
20375;SDS011;10347;51.828;6.466;2023-02-02T03:50:00;7.13;;;2.60;;
20375;SDS011;10347;51.828;6.466;2023-02-02T03:52:26;9.43;;;3.28;;
20375;SDS011;10347;51.828;6.466;2023-02-02T03:54:51;6.25;;;2.70;;
20375;SDS011;10347;51.828;6.466;2023-02-02T03:57:17;4.10;;;2.67;;
20375;SDS011;10347;51.828;6.466;2023-02-02T03:59:42;8.80;;;2.95;;
20375;SDS011;10347;51.828;6.466;2023-02-02T04:02:08;6.10;;;3.25;;
20375;SDS011;10347;51.828;6.466;2023-02-02T04:04:34;7.85;;;2.95;;
20375;SDS011;10347;51.828;6.466;2023-02-02T04:06:59;8.77;;;3.28;;
20375;SDS011;10347;51.828;6.466;2023-02-02T04:09:25;4.68;;;2.70;;
20375;SDS011;10347;51.828;6.466;2023-02-02T04:11:51;8.98;;;2.78;;
20375;SDS011;10347;51.828;6.466;2023-02-02T04:14:17;8.00;;;2.67;;
20375;SDS011;10347;51.828;6.466;2023-02-02T04:16:43;6.82;;;2.80;;
20375;SDS011;10347;51.828;6.466;2023-02-02T04:19:08;7.53;;;2.90;;
20375;SDS011;10347;51.828;6.466;2023-02-02T04:21:36;5.78;;;2.80;;
20375;SDS011;10347;51.828;6.466;2023-02-02T04:24:02;7.22;;;2.67;;
20375;SDS011;10347;51.828;6.466;2023-02-02T04:26:28;8.45;;;2.97;;
20375;SDS011;10347;51.828;6.466;2023-02-02T04:28:54;7.80;;;2.95;;
20375;SDS011;10347;51.828;6.466;2023-02-02T04:31:19;8.00;;;2.97;;
20375;SDS011;10347;51.828;6.466;2023-02-02T04:33:45;9.60;;;3.05;;
20375;SDS011;10347;51.828;6.466;2023-02-02T04:36:11;6.95;;;2.78;;
20375;SDS011;10347;51.828;6.466;2023-02-02T04:38:36;7.40;;;2.88;;
20375;SDS011;10347;51.828;6.466;2023-02-02T04:41:06;6.13;;;3.20;;
20375;SDS011;10347;51.828;6.466;2023-02-02T04:43:33;11.63;;;3.65;;
20375;SDS011;10347;51.828;6.466;2023-02-02T04:45:59;10.45;;;3.20;;
20375;SDS011;10347;51.828;6.466;2023-02-02T04:48:25;12.00;;;3.38;;
20375;SDS011;10347;51.828;6.466;2023-02-02T04:50:50;12.90;;;3.80;;
20375;SDS011;10347;51.828;6.466;2023-02-02T04:53:25;8.38;;;3.58;;
20375;SDS011;10347;51.828;6.466;2023-02-02T04:55:51;15.10;;;3.55;;
20375;SDS011;10347;51.828;6.466;2023-02-02T04:58:17;12.68;;;3.85;;
20375;SDS011;10347;51.828;6.466;2023-02-02T05:00:43;15.25;;;3.45;;
20375;SDS011;10347;51.828;6.466;2023-02-02T05:03:09;15.00;;;3.95;;
20375;SDS011;10347;51.828;6.466;2023-02-02T05:05:35;13.02;;;3.75;;
20375;SDS011;10347;51.828;6.466;2023-02-02T05:08:01;16.23;;;4.10;;
20375;SDS011;10347;51.828;6.466;2023-02-02T05:10:28;14.30;;;3.63;;
20375;SDS011;10347;51.828;6.466;2023-02-02T05:12:54;10.90;;;3.45;;
20375;SDS011;10347;51.828;6.466;2023-02-02T05:15:20;15.70;;;3.95;;
20375;SDS011;10347;51.828;6.466;2023-02-02T05:17:46;14.10;;;3.53;;
20375;SDS011;10347;51.828;6.466;2023-02-02T05:20:12;10.93;;;3.25;;
20375;SDS011;10347;51.828;6.466;2023-02-02T05:22:38;16.02;;;3.83;;
20375;SDS011;10347;51.828;6.466;2023-02-02T05:25:05;19.05;;;3.67;;
20375;SDS011;10347;51.828;6.466;2023-02-02T05:27:31;21.40;;;3.78;;
20375;SDS011;10347;51.828;6.466;2023-02-02T05:29:56;19.10;;;4.20;;
20375;SDS011;10347;51.828;6.466;2023-02-02T05:32:23;13.30;;;3.80;;
20375;SDS011;10347;51.828;6.466;2023-02-02T05:34:49;21.85;;;4.20;;
20375;SDS011;10347;51.828;6.466;2023-02-02T05:37:14;15.20;;;3.58;;
20375;SDS011;10347;51.828;6.466;2023-02-02T05:39:40;10.65;;;3.70;;
20375;SDS011;10347;51.828;6.466;2023-02-02T05:42:05;19.10;;;3.88;;
20375;SDS011;10347;51.828;6.466;2023-02-02T05:44:31;11.93;;;3.60;;
20375;SDS011;10347;51.828;6.466;2023-02-02T05:46:56;16.20;;;3.92;;
20375;SDS011;10347;51.828;6.466;2023-02-02T05:49:22;11.50;;;3.33;;
20375;SDS011;10347;51.828;6.466;2023-02-02T05:51:52;14.52;;;3.97;;
20375;SDS011;10347;51.828;6.466;2023-02-02T05:54:20;13.40;;;3.20;;
20375;SDS011;10347;51.828;6.466;2023-02-02T05:56:46;22.65;;;4.38;;
20375;SDS011;10347;51.828;6.466;2023-02-02T05:59:12;14.40;;;3.83;;
20375;SDS011;10347;51.828;6.466;2023-02-02T06:01:38;18.55;;;3.80;;
20375;SDS011;10347;51.828;6.466;2023-02-02T06:04:03;12.85;;;4.00;;
20375;SDS011;10347;51.828;6.466;2023-02-02T06:06:29;9.82;;;3.63;;
20375;SDS011;10347;51.828;6.466;2023-02-02T06:08:54;17.05;;;4.07;;
20375;SDS011;10347;51.828;6.466;2023-02-02T06:11:20;18.45;;;4.07;;
20375;SDS011;10347;51.828;6.466;2023-02-02T06:13:46;18.77;;;4.07;;
20375;SDS011;10347;51.828;6.466;2023-02-02T06:16:12;16.88;;;3.72;;
20375;SDS011;10347;51.828;6.466;2023-02-02T06:18:38;12.63;;;3.67;;
20375;SDS011;10347;51.828;6.466;2023-02-02T06:21:04;16.33;;;3.95;;
20375;SDS011;10347;51.828;6.466;2023-02-02T06:23:30;13.73;;;4.07;;
20375;SDS011;10347;51.828;6.466;2023-02-02T06:25:57;15.50;;;4.00;;
20375;SDS011;10347;51.828;6.466;2023-02-02T06:28:23;17.63;;;3.70;;
20375;SDS011;10347;51.828;6.466;2023-02-02T06:30:49;16.10;;;4.05;;
20375;SDS011;10347;51.828;6.466;2023-02-02T06:33:14;10.55;;;3.53;;
20375;SDS011;10347;51.828;6.466;2023-02-02T06:35:40;17.35;;;3.95;;
20375;SDS011;10347;51.828;6.466;2023-02-02T06:38:06;17.65;;;4.03;;
20375;SDS011;10347;51.828;6.466;2023-02-02T06:40:32;15.25;;;4.03;;
20375;SDS011;10347;51.828;6.466;2023-02-02T06:42:58;17.00;;;4.20;;
20375;SDS011;10347;51.828;6.466;2023-02-02T06:45:25;12.65;;;3.60;;
20375;SDS011;10347;51.828;6.466;2023-02-02T06:47:51;15.63;;;3.95;;
20375;SDS011;10347;51.828;6.466;2023-02-02T06:50:18;13.20;;;4.00;;
20375;SDS011;10347;51.828;6.466;2023-02-02T06:52:47;13.98;;;4.20;;
20375;SDS011;10347;51.828;6.466;2023-02-02T06:55:16;17.00;;;3.80;;
20375;SDS011;10347;51.828;6.466;2023-02-02T06:57:42;16.75;;;4.25;;
20375;SDS011;10347;51.828;6.466;2023-02-02T07:00:08;21.15;;;3.90;;
20375;SDS011;10347;51.828;6.466;2023-02-02T07:02:35;11.35;;;3.53;;
20375;SDS011;10347;51.828;6.466;2023-02-02T07:05:00;13.98;;;4.28;;
20375;SDS011;10347;51.828;6.466;2023-02-02T07:07:26;15.07;;;3.78;;
20375;SDS011;10347;51.828;6.466;2023-02-02T07:09:55;16.85;;;3.92;;
20375;SDS011;10347;51.828;6.466;2023-02-02T07:12:21;19.23;;;4.15;;
20375;SDS011;10347;51.828;6.466;2023-02-02T07:14:48;15.38;;;4.75;;
20375;SDS011;10347;51.828;6.466;2023-02-02T07:17:14;12.95;;;3.40;;
20375;SDS011;10347;51.828;6.466;2023-02-02T07:19:39;16.67;;;4.35;;
20375;SDS011;10347;51.828;6.466;2023-02-02T07:22:05;17.15;;;3.97;;
20375;SDS011;10347;51.828;6.466;2023-02-02T07:24:30;11.40;;;3.47;;
20375;SDS011;10347;51.828;6.466;2023-02-02T07:26:57;17.27;;;4.13;;
20375;SDS011;10347;51.828;6.466;2023-02-02T07:29:22;19.55;;;5.00;;
20375;SDS011;10347;51.828;6.466;2023-02-02T07:31:48;15.68;;;4.15;;
20375;SDS011;10347;51.828;6.466;2023-02-02T07:34:13;12.25;;;3.85;;
20375;SDS011;10347;51.828;6.466;2023-02-02T07:36:39;14.65;;;3.47;;
20375;SDS011;10347;51.828;6.466;2023-02-02T07:39:04;13.93;;;3.70;;
20375;SDS011;10347;51.828;6.466;2023-02-02T07:41:32;11.85;;;4.15;;
20375;SDS011;10347;51.828;6.466;2023-02-02T07:43:59;12.05;;;3.58;;
20375;SDS011;10347;51.828;6.466;2023-02-02T07:46:25;9.13;;;3.83;;
20375;SDS011;10347;51.828;6.466;2023-02-02T07:48:54;12.38;;;3.70;;
20375;SDS011;10347;51.828;6.466;2023-02-02T07:51:21;12.80;;;4.03;;
20375;SDS011;10347;51.828;6.466;2023-02-02T07:53:48;12.65;;;3.60;;
20375;SDS011;10347;51.828;6.466;2023-02-02T07:58:45;14.77;;;4.28;;
20375;SDS011;10347;51.828;6.466;2023-02-02T08:01:12;11.27;;;4.03;;
20375;SDS011;10347;51.828;6.466;2023-02-02T08:03:39;12.20;;;3.97;;
20375;SDS011;10347;51.828;6.466;2023-02-02T08:06:12;8.90;;;3.35;;
20375;SDS011;10347;51.828;6.466;2023-02-02T08:08:41;17.23;;;3.97;;
20375;SDS011;10347;51.828;6.466;2023-02-02T08:11:07;13.35;;;3.58;;
20375;SDS011;10347;51.828;6.466;2023-02-02T08:13:34;11.88;;;3.72;;
20375;SDS011;10347;51.828;6.466;2023-02-02T08:15:59;14.57;;;4.25;;
20375;SDS011;10347;51.828;6.466;2023-02-02T08:18:25;19.92;;;5.15;;
20375;SDS011;10347;51.828;6.466;2023-02-02T08:20:51;14.65;;;4.25;;
20375;SDS011;10347;51.828;6.466;2023-02-02T08:23:16;15.38;;;4.43;;
20375;SDS011;10347;51.828;6.466;2023-02-02T08:25:47;14.07;;;3.97;;
20375;SDS011;10347;51.828;6.466;2023-02-02T08:28:14;12.98;;;4.07;;
20375;SDS011;10347;51.828;6.466;2023-02-02T08:30:40;11.00;;;3.75;;
20375;SDS011;10347;51.828;6.466;2023-02-02T08:33:06;13.45;;;3.78;;
20375;SDS011;10347;51.828;6.466;2023-02-02T08:35:31;12.30;;;3.97;;
20375;SDS011;10347;51.828;6.466;2023-02-02T08:37:57;15.50;;;4.30;;
20375;SDS011;10347;51.828;6.466;2023-02-02T08:40:22;12.18;;;4.00;;
20375;SDS011;10347;51.828;6.466;2023-02-02T08:42:51;14.63;;;4.03;;
20375;SDS011;10347;51.828;6.466;2023-02-02T08:45:18;14.85;;;4.28;;
20375;SDS011;10347;51.828;6.466;2023-02-02T08:47:44;13.43;;;3.70;;
20375;SDS011;10347;51.828;6.466;2023-02-02T08:50:10;16.63;;;4.40;;
20375;SDS011;10347;51.828;6.466;2023-02-02T08:52:35;15.25;;;4.90;;
20375;SDS011;10347;51.828;6.466;2023-02-02T08:55:01;12.68;;;4.35;;
20375;SDS011;10347;51.828;6.466;2023-02-02T08:57:27;11.82;;;4.18;;
20375;SDS011;10347;51.828;6.466;2023-02-02T08:59:54;9.82;;;4.22;;
20375;SDS011;10347;51.828;6.466;2023-02-02T09:02:22;11.07;;;4.50;;
20375;SDS011;10347;51.828;6.466;2023-02-02T09:04:48;19.90;;;5.25;;
20375;SDS011;10347;51.828;6.466;2023-02-02T09:07:14;11.38;;;4.70;;
20375;SDS011;10347;51.828;6.466;2023-02-02T09:09:39;18.08;;;5.05;;
20375;SDS011;10347;51.828;6.466;2023-02-02T09:12:05;10.32;;;4.97;;
20375;SDS011;10347;51.828;6.466;2023-02-02T09:14:33;17.52;;;6.90;;
20375;SDS011;10347;51.828;6.466;2023-02-02T09:16:59;14.32;;;5.78;;
20375;SDS011;10347;51.828;6.466;2023-02-02T09:19:24;17.42;;;5.50;;
20375;SDS011;10347;51.828;6.466;2023-02-02T09:21:50;19.27;;;5.97;;
20375;SDS011;10347;51.828;6.466;2023-02-02T09:24:16;13.20;;;4.93;;
20375;SDS011;10347;51.828;6.466;2023-02-02T09:26:42;18.35;;;5.35;;
20375;SDS011;10347;51.828;6.466;2023-02-02T09:29:10;18.73;;;5.88;;
20375;SDS011;10347;51.828;6.466;2023-02-02T09:31:37;12.93;;;5.32;;
20375;SDS011;10347;51.828;6.466;2023-02-02T09:34:04;13.52;;;4.82;;
20375;SDS011;10347;51.828;6.466;2023-02-02T09:36:31;14.27;;;4.72;;
20375;SDS011;10347;51.828;6.466;2023-02-02T09:38:58;15.52;;;4.88;;
20375;SDS011;10347;51.828;6.466;2023-02-02T09:44:12;14.77;;;4.68;;
20375;SDS011;10347;51.828;6.466;2023-02-02T09:52:38;18.48;;;4.68;;
20375;SDS011;10347;51.828;6.466;2023-02-02T09:55:29;15.50;;;4.00;;
20375;SDS011;10347;51.828;6.466;2023-02-02T10:00:50;20.23;;;4.65;;
20375;SDS011;10347;51.828;6.466;2023-02-02T10:03:20;17.77;;;4.40;;
20375;SDS011;10347;51.828;6.466;2023-02-02T10:06:00;12.43;;;4.20;;
20375;SDS011;10347;51.828;6.466;2023-02-02T10:08:52;11.07;;;3.72;;
20375;SDS011;10347;51.828;6.466;2023-02-02T10:11:25;8.60;;;3.45;;
20375;SDS011;10347;51.828;6.466;2023-02-02T10:13:55;14.60;;;4.28;;
20375;SDS011;10347;51.828;6.466;2023-02-02T10:16:31;14.20;;;4.47;;
20375;SDS011;10347;51.828;6.466;2023-02-02T10:19:03;12.25;;;4.38;;
20375;SDS011;10347;51.828;6.466;2023-02-02T10:24:04;14.60;;;4.55;;
20375;SDS011;10347;51.828;6.466;2023-02-02T10:26:38;19.88;;;4.30;;
20375;SDS011;10347;51.828;6.466;2023-02-02T10:29:17;17.27;;;4.43;;
20375;SDS011;10347;51.828;6.466;2023-02-02T10:37:28;14.10;;;3.92;;
20375;SDS011;10347;51.828;6.466;2023-02-02T10:40:12;11.00;;;4.25;;
20375;SDS011;10347;51.828;6.466;2023-02-02T10:45:34;12.15;;;4.68;;
20375;SDS011;10347;51.828;6.466;2023-02-02T10:48:01;14.70;;;3.88;;
20375;SDS011;10347;51.828;6.466;2023-02-02T10:50:28;16.67;;;4.22;;
20375;SDS011;10347;51.828;6.466;2023-02-02T10:52:55;10.90;;;3.38;;
20375;SDS011;10347;51.828;6.466;2023-02-02T10:55:29;17.23;;;3.85;;
20375;SDS011;10347;51.828;6.466;2023-02-02T11:00:56;12.02;;;3.60;;
20375;SDS011;10347;51.828;6.466;2023-02-02T11:03:24;17.73;;;3.55;;
20375;SDS011;10347;51.828;6.466;2023-02-02T11:05:56;16.17;;;4.05;;
20375;SDS011;10347;51.828;6.466;2023-02-02T11:08:42;10.05;;;3.47;;
20375;SDS011;10347;51.828;6.466;2023-02-02T11:14:12;17.13;;;3.92;;
20375;SDS011;10347;51.828;6.466;2023-02-02T11:16:31;11.48;;;3.38;;
20375;SDS011;10347;51.828;6.466;2023-02-02T11:19:05;11.18;;;2.90;;
20375;SDS011;10347;51.828;6.466;2023-02-02T11:21:47;10.73;;;3.30;;
20375;SDS011;10347;51.828;6.466;2023-02-02T11:24:22;20.30;;;4.10;;
20375;SDS011;10347;51.828;6.466;2023-02-02T11:27:01;16.58;;;3.95;;
20375;SDS011;10347;51.828;6.466;2023-02-02T11:29:40;14.68;;;4.10;;
20375;SDS011;10347;51.828;6.466;2023-02-02T11:37:29;8.80;;;3.10;;
20375;SDS011;10347;51.828;6.466;2023-02-02T11:40:30;10.80;;;3.53;;
20375;SDS011;10347;51.828;6.466;2023-02-02T11:42:50;11.32;;;3.28;;
20375;SDS011;10347;51.828;6.466;2023-02-02T11:45:17;13.98;;;3.25;;
20375;SDS011;10347;51.828;6.466;2023-02-02T11:47:49;16.00;;;3.95;;
20375;SDS011;10347;51.828;6.466;2023-02-02T11:50:21;12.00;;;3.47;;
20375;SDS011;10347;51.828;6.466;2023-02-02T11:52:50;10.05;;;3.45;;
20375;SDS011;10347;51.828;6.466;2023-02-02T11:55:16;14.18;;;3.78;;
20375;SDS011;10347;51.828;6.466;2023-02-02T12:00:55;17.35;;;3.63;;
20375;SDS011;10347;51.828;6.466;2023-02-02T12:03:33;12.07;;;3.47;;
20375;SDS011;10347;51.828;6.466;2023-02-02T12:06:19;12.95;;;3.58;;
20375;SDS011;10347;51.828;6.466;2023-02-02T12:08:58;12.15;;;3.65;;
20375;SDS011;10347;51.828;6.466;2023-02-02T12:11:40;16.27;;;3.45;;
20375;SDS011;10347;51.828;6.466;2023-02-02T12:17:14;13.80;;;3.53;;
20375;SDS011;10347;51.828;6.466;2023-02-02T12:20:14;7.63;;;3.00;;
20375;SDS011;10347;51.828;6.466;2023-02-02T12:50:08;12.20;;;3.65;;
20375;SDS011;10347;51.828;6.466;2023-02-02T12:58:49;13.10;;;3.92;;
20375;SDS011;10347;51.828;6.466;2023-02-02T13:01:25;13.50;;;3.17;;
20375;SDS011;10347;51.828;6.466;2023-02-02T13:03:58;14.00;;;3.10;;
20375;SDS011;10347;51.828;6.466;2023-02-02T13:07:08;12.07;;;3.90;;
20375;SDS011;10347;51.828;6.466;2023-02-02T13:09:50;8.82;;;3.65;;
20375;SDS011;10347;51.828;6.466;2023-02-02T13:12:46;9.30;;;3.65;;
20375;SDS011;10347;51.828;6.466;2023-02-02T13:15:28;8.77;;;3.33;;
20375;SDS011;10347;51.828;6.466;2023-02-02T13:17:59;9.90;;;3.13;;
20375;SDS011;10347;51.828;6.466;2023-02-02T13:20:36;13.40;;;3.70;;
20375;SDS011;10347;51.828;6.466;2023-02-02T13:23:07;10.60;;;3.90;;
20375;SDS011;10347;51.828;6.466;2023-02-02T13:25:54;10.95;;;4.30;;
20375;SDS011;10347;51.828;6.466;2023-02-02T13:28:37;12.48;;;3.58;;
20375;SDS011;10347;51.828;6.466;2023-02-02T13:36:48;16.23;;;3.65;;
20375;SDS011;10347;51.828;6.466;2023-02-02T13:39:19;11.35;;;3.55;;
20375;SDS011;10347;51.828;6.466;2023-02-02T13:41:53;16.60;;;4.90;;
20375;SDS011;10347;51.828;6.466;2023-02-02T13:44:24;12.30;;;3.83;;
20375;SDS011;10347;51.828;6.466;2023-02-02T13:46:56;21.88;;;3.55;;
20375;SDS011;10347;51.828;6.466;2023-02-02T13:49:33;13.75;;;3.65;;
20375;SDS011;10347;51.828;6.466;2023-02-02T14:00:15;11.15;;;3.83;;
20375;SDS011;10347;51.828;6.466;2023-02-02T14:05:23;11.13;;;3.70;;
20375;SDS011;10347;51.828;6.466;2023-02-02T14:07:58;18.40;;;3.97;;
20375;SDS011;10347;51.828;6.466;2023-02-02T14:10:39;6.75;;;3.33;;
20375;SDS011;10347;51.828;6.466;2023-02-02T14:15:57;12.95;;;3.75;;
20375;SDS011;10347;51.828;6.466;2023-02-02T14:29:32;7.20;;;3.95;;
20375;SDS011;10347;51.828;6.466;2023-02-02T14:32:02;15.98;;;4.40;;
20375;SDS011;10347;51.828;6.466;2023-02-02T14:34:59;7.22;;;3.65;;
20375;SDS011;10347;51.828;6.466;2023-02-02T14:37:55;14.55;;;4.60;;
20375;SDS011;10347;51.828;6.466;2023-02-02T14:40:32;9.20;;;4.13;;
20375;SDS011;10347;51.828;6.466;2023-02-02T14:43:26;7.53;;;3.90;;
20375;SDS011;10347;51.828;6.466;2023-02-02T14:46:23;11.52;;;4.50;;
20375;SDS011;10347;51.828;6.466;2023-02-02T14:51:26;9.27;;;4.20;;
20375;SDS011;10347;51.828;6.466;2023-02-02T14:56:21;7.90;;;4.10;;
20375;SDS011;10347;51.828;6.466;2023-02-02T14:59:02;16.83;;;4.68;;
20375;SDS011;10347;51.828;6.466;2023-02-02T15:01:35;9.82;;;4.28;;
20375;SDS011;10347;51.828;6.466;2023-02-02T15:09:50;14.07;;;4.65;;
20375;SDS011;10347;51.828;6.466;2023-02-02T15:12:33;12.05;;;4.75;;
20375;SDS011;10347;51.828;6.466;2023-02-02T15:15:11;8.57;;;4.00;;
20375;SDS011;10347;51.828;6.466;2023-02-02T15:20:35;6.95;;;3.75;;
20375;SDS011;10347;51.828;6.466;2023-02-02T15:26:06;9.85;;;3.35;;
20375;SDS011;10347;51.828;6.466;2023-02-02T15:33:43;6.28;;;3.25;;
20375;SDS011;10347;51.828;6.466;2023-02-02T15:36:11;6.85;;;3.50;;
20375;SDS011;10347;51.828;6.466;2023-02-02T15:38:48;8.35;;;3.47;;
20375;SDS011;10347;51.828;6.466;2023-02-02T15:43:51;6.40;;;3.25;;
20375;SDS011;10347;51.828;6.466;2023-02-02T15:46:18;6.53;;;2.58;;
20375;SDS011;10347;51.828;6.466;2023-02-02T15:51:41;10.77;;;3.53;;
20375;SDS011;10347;51.828;6.466;2023-02-02T15:54:19;7.82;;;3.53;;
20375;SDS011;10347;51.828;6.466;2023-02-02T15:56:54;6.45;;;3.42;;
20375;SDS011;10347;51.828;6.466;2023-02-02T15:59:25;5.50;;;3.30;;
20375;SDS011;10347;51.828;6.466;2023-02-02T16:04:37;5.47;;;3.70;;
20375;SDS011;10347;51.828;6.466;2023-02-02T16:07:05;4.13;;;3.70;;
20375;SDS011;10347;51.828;6.466;2023-02-02T16:10:00;4.13;;;3.13;;
20375;SDS011;10347;51.828;6.466;2023-02-02T16:12:31;4.38;;;2.90;;
20375;SDS011;10347;51.828;6.466;2023-02-02T16:14:59;6.82;;;3.70;;
20375;SDS011;10347;51.828;6.466;2023-02-02T16:17:29;6.85;;;3.30;;
20375;SDS011;10347;51.828;6.466;2023-02-02T16:20:03;8.27;;;3.90;;
20375;SDS011;10347;51.828;6.466;2023-02-02T16:22:34;5.38;;;4.03;;
20375;SDS011;10347;51.828;6.466;2023-02-02T16:25:01;3.83;;;3.28;;
20375;SDS011;10347;51.828;6.466;2023-02-02T16:27:31;4.00;;;3.47;;
20375;SDS011;10347;51.828;6.466;2023-02-02T16:30:05;3.75;;;3.30;;
20375;SDS011;10347;51.828;6.466;2023-02-02T16:32:33;4.78;;;3.42;;
20375;SDS011;10347;51.828;6.466;2023-02-02T16:35:02;5.32;;;3.53;;
20375;SDS011;10347;51.828;6.466;2023-02-02T16:37:49;4.03;;;3.70;;
20375;SDS011;10347;51.828;6.466;2023-02-02T16:40:23;4.18;;;3.70;;
20375;SDS011;10347;51.828;6.466;2023-02-02T16:43:05;4.32;;;3.55;;
20375;SDS011;10347;51.828;6.466;2023-02-02T16:45:44;4.80;;;4.40;;
20375;SDS011;10347;51.828;6.466;2023-02-02T16:51:26;5.07;;;4.53;;
20375;SDS011;10347;51.828;6.466;2023-02-02T16:56:25;5.93;;;4.88;;
20375;SDS011;10347;51.828;6.466;2023-02-02T16:58:59;7.10;;;5.00;;
20375;SDS011;10347;51.828;6.466;2023-02-02T17:01:33;5.40;;;5.00;;
20375;SDS011;10347;51.828;6.466;2023-02-02T17:04:04;5.47;;;4.95;;
20375;SDS011;10347;51.828;6.466;2023-02-02T17:06:40;5.30;;;4.80;;
20375;SDS011;10347;51.828;6.466;2023-02-02T17:09:15;6.88;;;5.82;;
20375;SDS011;10347;51.828;6.466;2023-02-02T17:11:54;7.07;;;5.65;;
20375;SDS011;10347;51.828;6.466;2023-02-02T17:14:29;9.60;;;6.40;;
20375;SDS011;10347;51.828;6.466;2023-02-02T17:16:57;7.57;;;6.68;;
20375;SDS011;10347;51.828;6.466;2023-02-02T17:19:23;6.00;;;5.50;;
20375;SDS011;10347;51.828;6.466;2023-02-02T17:21:52;8.20;;;6.40;;
20375;SDS011;10347;51.828;6.466;2023-02-02T17:24:18;7.63;;;6.78;;
20375;SDS011;10347;51.828;6.466;2023-02-02T17:26:44;7.82;;;6.72;;
20375;SDS011;10347;51.828;6.466;2023-02-02T17:29:11;7.10;;;6.40;;
20375;SDS011;10347;51.828;6.466;2023-02-02T17:31:41;6.95;;;6.10;;